PRJAQ SAWC-SAZS
Flight info
| Callsign | PRJAQ |
|---|---|
| Flight time | 1h 22m |
| Altitude | 43000 |
| Route | OGTUR1G OGTUR UT659 DAKAX UT658 ESQ UW44 TORES TORES2Q |
| Aircraft | C750/M-SBDE3FGHRWXY/S |
Departure
| Time | 2026-05-09 20:32 |
|---|---|
| Airport | El Calafate - Commander Armando Tola International Airport (SAWC) |
Arrival
| Time | 2026-05-09 21:54 |
|---|---|
| Airport | Teniente Luis Candelaria International Airport (SAZS) |
| Time | Latitude | Longitude | Altitude | Speed | Heading |
|---|---|---|---|---|---|
| 2026-05-09 20:18 | -50.28310 | -72.04707 | 638 ft | 0 kts | 262° |
| 2026-05-09 20:26 | -50.28309 | -72.04720 | 638 ft | 4 kts | 284° |
| 2026-05-09 20:26 | -50.28274 | -72.04740 | 638 ft | 8 kts | 357° |
| 2026-05-09 20:26 | -50.28226 | -72.04774 | 638 ft | 9 kts | 286° |
| 2026-05-09 20:26 | -50.28230 | -72.04908 | 638 ft | 17 kts | 265° |
| 2026-05-09 20:27 | -50.28243 | -72.05132 | 638 ft | 23 kts | 265° |
| 2026-05-09 20:27 | -50.28257 | -72.05372 | 638 ft | 21 kts | 264° |
| 2026-05-09 20:27 | -50.28271 | -72.05595 | 638 ft | 20 kts | 264° |
| 2026-05-09 20:27 | -50.28284 | -72.05807 | 638 ft | 21 kts | 265° |
| 2026-05-09 20:28 | -50.28296 | -72.06031 | 638 ft | 20 kts | 265° |
| 2026-05-09 20:28 | -50.28308 | -72.06239 | 638 ft | 18 kts | 265° |
| 2026-05-09 20:28 | -50.28261 | -72.06389 | 638 ft | 16 kts | 343° |
| 2026-05-09 20:29 | -50.28104 | -72.06239 | 639 ft | 11 kts | 352° |
| 2026-05-09 20:29 | -50.28082 | -72.06359 | 640 ft | 18 kts | 263° |
| 2026-05-09 20:29 | -50.28097 | -72.06607 | 639 ft | 24 kts | 264° |
| 2026-05-09 20:29 | -50.28114 | -72.06837 | 639 ft | 18 kts | 252° |
| 2026-05-09 20:30 | -50.28166 | -72.06999 | 638 ft | 16 kts | 261° |
| 2026-05-09 20:30 | -50.28124 | -72.07067 | 639 ft | 8 kts | 39° |
| 2026-05-09 20:30 | -50.28119 | -72.06992 | 639 ft | 5 kts | 85° |
| 2026-05-09 20:30 | -50.28118 | -72.06982 | 639 ft | 0 kts | 85° |
| 2026-05-09 20:31 | -50.28117 | -72.06962 | 639 ft | 8 kts | 85° |
| 2026-05-09 20:31 | -50.28094 | -72.06567 | 639 ft | 88 kts | 84° |
| 2026-05-09 20:31 | -50.28006 | -72.05116 | 670 ft | 163 kts | 83° |
| 2026-05-09 20:32 | -50.27903 | -72.03284 | 1262 ft | 174 kts | 83° |
| 2026-05-09 20:32 | -50.27762 | -72.01317 | 1966 ft | 192 kts | 82° |
| 2026-05-09 20:32 | -50.27635 | -71.99106 | 2459 ft | 222 kts | 86° |
| 2026-05-09 20:32 | -50.27283 | -71.96603 | 2827 ft | 255 kts | 62° |
| 2026-05-09 20:33 | -50.25963 | -71.94624 | 3238 ft | 274 kts | 22° |
| 2026-05-09 20:33 | -50.24140 | -71.94266 | 4275 ft | 260 kts | 348° |
| 2026-05-09 20:33 | -50.22377 | -71.94789 | 5352 ft | 260 kts | 342° |
| 2026-05-09 20:33 | -50.20539 | -71.95177 | 6316 ft | 272 kts | 348° |
| 2026-05-09 20:34 | -50.18623 | -71.95283 | 7301 ft | 280 kts | 351° |
| 2026-05-09 20:34 | -50.16641 | -71.95378 | 8247 ft | 289 kts | 350° |
| 2026-05-09 20:34 | -50.14602 | -71.95566 | 9251 ft | 297 kts | 349° |
| 2026-05-09 20:34 | -50.12510 | -71.95772 | 10147 ft | 306 kts | 349° |
| 2026-05-09 20:35 | -50.10351 | -71.95953 | 10936 ft | 314 kts | 349° |
| 2026-05-09 20:35 | -50.08142 | -71.96128 | 11763 ft | 321 kts | 349° |
| 2026-05-09 20:35 | -50.05889 | -71.96320 | 12566 ft | 328 kts | 348° |
| 2026-05-09 20:35 | -50.03549 | -71.96231 | 13136 ft | 351 kts | 0° |
| 2026-05-09 20:36 | -50.01046 | -71.95502 | 13268 ft | 382 kts | 6° |
| 2026-05-09 20:36 | -49.98361 | -71.94566 | 13324 ft | 408 kts | 7° |
| 2026-05-09 20:36 | -49.95556 | -71.93685 | 14005 ft | 411 kts | 5° |
| 2026-05-09 20:36 | -49.92723 | -71.92890 | 14647 ft | 417 kts | 4° |
| 2026-05-09 20:37 | -49.89856 | -71.92058 | 15276 ft | 422 kts | 5° |
| 2026-05-09 20:37 | -49.86958 | -71.91157 | 15939 ft | 426 kts | 5° |
| 2026-05-09 20:37 | -49.84038 | -71.90260 | 16620 ft | 430 kts | 4° |
| 2026-05-09 20:37 | -49.81081 | -71.89391 | 17305 ft | 435 kts | 4° |
| 2026-05-09 20:38 | -49.78133 | -71.88573 | 18005 ft | 436 kts | 1° |
| 2026-05-09 20:38 | -49.75112 | -71.87918 | 18686 ft | 440 kts | 359° |
| 2026-05-09 20:38 | -49.72065 | -71.87290 | 19353 ft | 444 kts | 359° |
| 2026-05-09 20:38 | -49.68994 | -71.86635 | 20057 ft | 447 kts | 359° |
| 2026-05-09 20:39 | -49.65900 | -71.85981 | 20725 ft | 449 kts | 357° |
| 2026-05-09 20:39 | -49.62807 | -71.85880 | 21359 ft | 440 kts | 346° |
| 2026-05-09 20:39 | -49.59805 | -71.86456 | 22081 ft | 431 kts | 337° |
| 2026-05-09 20:39 | -49.56939 | -71.87661 | 22787 ft | 421 kts | 328° |
| 2026-05-09 20:40 | -49.54220 | -71.89283 | 23484 ft | 421 kts | 325° |
| 2026-05-09 20:40 | -49.51468 | -71.90888 | 24071 ft | 429 kts | 328° |
| 2026-05-09 20:40 | -49.48517 | -71.92058 | 24599 ft | 446 kts | 336° |
| 2026-05-09 20:40 | -49.45382 | -71.92663 | 25148 ft | 463 kts | 343° |
| 2026-05-09 20:41 | -49.42104 | -71.92627 | 25654 ft | 481 kts | 352° |
| 2026-05-09 20:41 | -49.38732 | -71.91873 | 26157 ft | 499 kts | 1° |
| 2026-05-09 20:41 | -49.35325 | -71.90698 | 26674 ft | 504 kts | 1° |
| 2026-05-09 20:41 | -49.31890 | -71.89533 | 27177 ft | 507 kts | 1° |
| 2026-05-09 20:42 | -49.28424 | -71.88399 | 27661 ft | 512 kts | 0° |
| 2026-05-09 20:42 | -49.26113 | -71.87639 | 28026 ft | 514 kts | 0° |
| 2026-05-09 20:42 | -49.22602 | -71.86459 | 28541 ft | 519 kts | 0° |
| 2026-05-09 20:42 | -49.19059 | -71.85262 | 29080 ft | 524 kts | 0° |
| 2026-05-09 20:43 | -49.15485 | -71.84075 | 29604 ft | 528 kts | 0° |
| 2026-05-09 20:43 | -49.11879 | -71.82888 | 30113 ft | 532 kts | 360° |
| 2026-05-09 20:43 | -49.08244 | -71.81684 | 30559 ft | 537 kts | 0° |
| 2026-05-09 20:43 | -49.04577 | -71.80461 | 30956 ft | 542 kts | 0° |
| 2026-05-09 20:44 | -49.00880 | -71.79233 | 31462 ft | 543 kts | 0° |
| 2026-05-09 20:44 | -48.97190 | -71.78012 | 32031 ft | 543 kts | 0° |
| 2026-05-09 20:44 | -48.93488 | -71.76797 | 32512 ft | 545 kts | 0° |
| 2026-05-09 20:44 | -48.89775 | -71.75578 | 33033 ft | 547 kts | 1° |
| 2026-05-09 20:45 | -48.86050 | -71.74351 | 33556 ft | 549 kts | 1° |
| 2026-05-09 20:45 | -48.82313 | -71.73146 | 34047 ft | 550 kts | 0° |
| 2026-05-09 20:45 | -48.78565 | -71.71974 | 34541 ft | 550 kts | 0° |
| 2026-05-09 20:45 | -48.74827 | -71.70793 | 35223 ft | 546 kts | 1° |
| 2026-05-09 20:46 | -48.71141 | -71.69600 | 36015 ft | 539 kts | 1° |
| 2026-05-09 20:46 | -48.67499 | -71.68433 | 36842 ft | 532 kts | 1° |
| 2026-05-09 20:46 | -48.63942 | -71.67318 | 37669 ft | 525 kts | 1° |
| 2026-05-09 20:46 | -48.60388 | -71.66204 | 38521 ft | 518 kts | 1° |
| 2026-05-09 20:47 | -48.56884 | -71.65090 | 39242 ft | 512 kts | 1° |
| 2026-05-09 20:47 | -48.53361 | -71.63975 | 39747 ft | 510 kts | 1° |
| 2026-05-09 20:47 | -48.49886 | -71.62888 | 40221 ft | 509 kts | 2° |
| 2026-05-09 20:47 | -48.46467 | -71.61815 | 40703 ft | 509 kts | 2° |
| 2026-05-09 20:48 | -48.42999 | -71.60722 | 41157 ft | 508 kts | 2° |
| 2026-05-09 20:48 | -48.39540 | -71.59633 | 41648 ft | 507 kts | 2° |
| 2026-05-09 20:48 | -48.36091 | -71.58554 | 42140 ft | 506 kts | 2° |
| 2026-05-09 20:48 | -48.32641 | -71.57477 | 42615 ft | 506 kts | 3° |
| 2026-05-09 20:49 | -48.29218 | -71.56403 | 43066 ft | 501 kts | 3° |
| 2026-05-09 20:49 | -48.25775 | -71.55334 | 43057 ft | 510 kts | 3° |
| 2026-05-09 20:49 | -48.18692 | -71.53138 | 43073 ft | 529 kts | 4° |
| 2026-05-09 20:50 | -48.11384 | -71.50858 | 43092 ft | 543 kts | 4° |
| 2026-05-09 20:50 | -48.03911 | -71.48548 | 43081 ft | 551 kts | 4° |
| 2026-05-09 20:51 | -47.96387 | -71.46654 | 43073 ft | 547 kts | 0° |
| 2026-05-09 20:51 | -47.88865 | -71.44891 | 43066 ft | 547 kts | 1° |
| 2026-05-09 20:52 | -47.81345 | -71.43089 | 43064 ft | 546 kts | 1° |
| 2026-05-09 20:52 | -47.73885 | -71.41346 | 43062 ft | 546 kts | 1° |
| 2026-05-09 20:53 | -47.66382 | -71.39567 | 43066 ft | 546 kts | 1° |
| 2026-05-09 20:53 | -47.58879 | -71.37815 | 43064 ft | 546 kts | 1° |
| 2026-05-09 20:54 | -47.51364 | -71.36051 | 43066 ft | 546 kts | 1° |
| 2026-05-09 20:54 | -47.43860 | -71.34304 | 43073 ft | 545 kts | 1° |
| 2026-05-09 20:55 | -47.36364 | -71.32558 | 43073 ft | 545 kts | 1° |
| 2026-05-09 20:55 | -47.28871 | -71.30820 | 43072 ft | 545 kts | 1° |
| 2026-05-09 20:56 | -47.17704 | -71.28239 | 43065 ft | 544 kts | 1° |
| 2026-05-09 20:57 | -47.10229 | -71.26518 | 43063 ft | 544 kts | 1° |
| 2026-05-09 20:57 | -47.02755 | -71.24801 | 43058 ft | 544 kts | 1° |
| 2026-05-09 20:58 | -46.95257 | -71.23085 | 43061 ft | 546 kts | 1° |
| 2026-05-09 20:58 | -46.87745 | -71.21368 | 43065 ft | 547 kts | 1° |
| 2026-05-09 20:59 | -46.80203 | -71.19651 | 43065 ft | 548 kts | 1° |
| 2026-05-09 20:59 | -46.72698 | -71.17947 | 43065 ft | 550 kts | 1° |
| 2026-05-09 21:00 | -46.61344 | -71.15377 | 43059 ft | 551 kts | 1° |
| 2026-05-09 21:00 | -46.53751 | -71.13666 | 43066 ft | 552 kts | 1° |
| 2026-05-09 21:01 | -46.46159 | -71.11957 | 43071 ft | 552 kts | 1° |
| 2026-05-09 21:02 | -46.34771 | -71.09407 | 43074 ft | 552 kts | 1° |
| 2026-05-09 21:02 | -46.27159 | -71.07707 | 43086 ft | 554 kts | 1° |
| 2026-05-09 21:03 | -46.19537 | -71.06011 | 43094 ft | 555 kts | 1° |
| 2026-05-09 21:03 | -46.11893 | -71.04314 | 43099 ft | 556 kts | 1° |
| 2026-05-09 21:04 | -46.04281 | -71.02628 | 43098 ft | 558 kts | 1° |
| 2026-05-09 21:04 | -45.96591 | -71.00931 | 43105 ft | 560 kts | 1° |
| 2026-05-09 21:05 | -45.88876 | -70.99232 | 43104 ft | 562 kts | 1° |
| 2026-05-09 21:05 | -45.81139 | -70.97534 | 43103 ft | 563 kts | 1° |
| 2026-05-09 21:06 | -45.73383 | -70.95836 | 43104 ft | 564 kts | 1° |
| 2026-05-09 21:06 | -45.65619 | -70.94141 | 43096 ft | 564 kts | 1° |
| 2026-05-09 21:07 | -45.57862 | -70.92451 | 43103 ft | 564 kts | 1° |
| 2026-05-09 21:07 | -45.50100 | -70.90767 | 43092 ft | 564 kts | 1° |
| 2026-05-09 21:08 | -45.42342 | -70.89088 | 43094 ft | 564 kts | 1° |
| 2026-05-09 21:08 | -45.34589 | -70.87414 | 43094 ft | 563 kts | 1° |
| 2026-05-09 21:09 | -45.26882 | -70.85755 | 43096 ft | 564 kts | 1° |
| 2026-05-09 21:09 | -45.19124 | -70.84089 | 43096 ft | 564 kts | 2° |
| 2026-05-09 21:10 | -45.11374 | -70.82430 | 43097 ft | 563 kts | 2° |
| 2026-05-09 21:10 | -45.03636 | -70.80778 | 43093 ft | 562 kts | 2° |
| 2026-05-09 21:11 | -44.95908 | -70.79132 | 43099 ft | 561 kts | 2° |
| 2026-05-09 21:12 | -44.76692 | -70.76229 | 43087 ft | 538 kts | 345° |
| 2026-05-09 21:12 | -44.69249 | -70.77641 | 43123 ft | 540 kts | 344° |
| 2026-05-09 21:13 | -44.61797 | -70.79005 | 43116 ft | 540 kts | 345° |
| 2026-05-09 21:13 | -44.54346 | -70.80379 | 43125 ft | 540 kts | 344° |
| 2026-05-09 21:14 | -44.46891 | -70.81756 | 43125 ft | 542 kts | 345° |
| 2026-05-09 21:14 | -44.39450 | -70.83111 | 43134 ft | 542 kts | 345° |
| 2026-05-09 21:15 | -44.31963 | -70.84489 | 43145 ft | 543 kts | 345° |
| 2026-05-09 21:15 | -44.24474 | -70.85847 | 43148 ft | 542 kts | 345° |
| 2026-05-09 21:16 | -44.17034 | -70.87207 | 43150 ft | 542 kts | 345° |
| 2026-05-09 21:16 | -44.09557 | -70.88561 | 43158 ft | 542 kts | 345° |
| 2026-05-09 21:17 | -44.02073 | -70.89918 | 43160 ft | 542 kts | 345° |
| 2026-05-09 21:17 | -43.94586 | -70.91268 | 43158 ft | 542 kts | 345° |
| 2026-05-09 21:18 | -43.87108 | -70.92616 | 43165 ft | 542 kts | 345° |
| 2026-05-09 21:18 | -43.79627 | -70.93960 | 43161 ft | 542 kts | 345° |
| 2026-05-09 21:19 | -43.64663 | -70.96638 | 43167 ft | 542 kts | 345° |
| 2026-05-09 21:20 | -43.57176 | -70.97973 | 43163 ft | 542 kts | 346° |
| 2026-05-09 21:20 | -43.49685 | -70.99305 | 43168 ft | 543 kts | 346° |
| 2026-05-09 21:21 | -43.42196 | -71.00634 | 43162 ft | 543 kts | 346° |
| 2026-05-09 21:21 | -43.34695 | -71.01961 | 43167 ft | 543 kts | 346° |
| 2026-05-09 21:22 | -43.27249 | -71.03277 | 43176 ft | 543 kts | 346° |
| 2026-05-09 21:22 | -43.19745 | -71.04597 | 43163 ft | 543 kts | 346° |
| 2026-05-09 21:23 | -43.12245 | -71.05915 | 43154 ft | 543 kts | 346° |
| 2026-05-09 21:23 | -43.04742 | -71.07229 | 43140 ft | 543 kts | 346° |
| 2026-05-09 21:24 | -42.97237 | -71.08541 | 43142 ft | 544 kts | 346° |
| 2026-05-09 21:24 | -42.89722 | -71.09849 | 43138 ft | 544 kts | 346° |
| 2026-05-09 21:25 | -42.82095 | -71.10383 | 43142 ft | 551 kts | 352° |
| 2026-05-09 21:25 | -42.74438 | -71.10779 | 43146 ft | 550 kts | 351° |
| 2026-05-09 21:26 | -42.66775 | -71.11199 | 43157 ft | 551 kts | 352° |
| 2026-05-09 21:26 | -42.59117 | -71.11589 | 43174 ft | 551 kts | 352° |
| 2026-05-09 21:27 | -42.51455 | -71.12006 | 43176 ft | 551 kts | 352° |
| 2026-05-09 21:27 | -42.43841 | -71.12396 | 43176 ft | 551 kts | 352° |
| 2026-05-09 21:28 | -42.36177 | -71.12805 | 43180 ft | 550 kts | 352° |
| 2026-05-09 21:28 | -42.28526 | -71.13200 | 43180 ft | 551 kts | 352° |
| 2026-05-09 21:29 | -42.20863 | -71.13603 | 43181 ft | 551 kts | 352° |
| 2026-05-09 21:29 | -42.17066 | -71.13795 | 42994 ft | 536 kts | 352° |
| 2026-05-09 21:29 | -42.13375 | -71.13979 | 42251 ft | 525 kts | 352° |
| 2026-05-09 21:30 | -42.09757 | -71.14172 | 41552 ft | 516 kts | 352° |
| 2026-05-09 21:30 | -42.06203 | -71.14364 | 40885 ft | 507 kts | 352° |
| 2026-05-09 21:30 | -42.02711 | -71.14542 | 40241 ft | 498 kts | 351° |
| 2026-05-09 21:30 | -41.99281 | -71.14714 | 39846 ft | 487 kts | 351° |
| 2026-05-09 21:31 | -41.95940 | -71.14886 | 39706 ft | 477 kts | 351° |
| 2026-05-09 21:31 | -41.92639 | -71.15070 | 39556 ft | 486 kts | 351° |
| 2026-05-09 21:31 | -41.89223 | -71.15257 | 39360 ft | 497 kts | 351° |
| 2026-05-09 21:31 | -41.85752 | -71.15427 | 39107 ft | 500 kts | 352° |
| 2026-05-09 21:32 | -41.82269 | -71.15592 | 38820 ft | 499 kts | 352° |
| 2026-05-09 21:32 | -41.78801 | -71.15773 | 38501 ft | 499 kts | 352° |
| 2026-05-09 21:32 | -41.75328 | -71.15962 | 38174 ft | 500 kts | 352° |
| 2026-05-09 21:32 | -41.71853 | -71.16159 | 37835 ft | 499 kts | 351° |
| 2026-05-09 21:33 | -41.69549 | -71.16610 | 37514 ft | 492 kts | 340° |
| 2026-05-09 21:33 | -41.65451 | -71.18900 | 37016 ft | 475 kts | 321° |
| 2026-05-09 21:33 | -41.63667 | -71.20635 | 36789 ft | 465 kts | 311° |
| 2026-05-09 21:33 | -41.61495 | -71.23735 | 36470 ft | 451 kts | 299° |
| 2026-05-09 21:34 | -41.59946 | -71.27241 | 36190 ft | 439 kts | 287° |
| 2026-05-09 21:34 | -41.58998 | -71.31060 | 35903 ft | 429 kts | 275° |
| 2026-05-09 21:34 | -41.58664 | -71.34981 | 35482 ft | 424 kts | 265° |
| 2026-05-09 21:34 | -41.58951 | -71.38879 | 34885 ft | 420 kts | 254° |
| 2026-05-09 21:35 | -41.59813 | -71.42578 | 34293 ft | 415 kts | 243° |
| 2026-05-09 21:35 | -41.61200 | -71.45933 | 33652 ft | 412 kts | 233° |
| 2026-05-09 21:35 | -41.63051 | -71.48835 | 32997 ft | 410 kts | 223° |
| 2026-05-09 21:35 | -41.65294 | -71.51184 | 32364 ft | 410 kts | 213° |
| 2026-05-09 21:36 | -41.67851 | -71.52893 | 31722 ft | 413 kts | 202° |
| 2026-05-09 21:36 | -41.70638 | -71.53887 | 31036 ft | 417 kts | 192° |
| 2026-05-09 21:36 | -41.73551 | -71.54111 | 30369 ft | 420 kts | 183° |
| 2026-05-09 21:36 | -41.76444 | -71.53954 | 29645 ft | 413 kts | 182° |
| 2026-05-09 21:37 | -41.79296 | -71.53789 | 28988 ft | 407 kts | 182° |
| 2026-05-09 21:37 | -41.82110 | -71.53649 | 28397 ft | 402 kts | 182° |
| 2026-05-09 21:37 | -41.84899 | -71.53516 | 27814 ft | 399 kts | 182° |
| 2026-05-09 21:37 | -41.87658 | -71.53372 | 27245 ft | 395 kts | 182° |
| 2026-05-09 21:38 | -41.90392 | -71.52926 | 26634 ft | 399 kts | 173° |
| 2026-05-09 21:38 | -41.93036 | -71.51741 | 26049 ft | 404 kts | 163° |
| 2026-05-09 21:38 | -41.95463 | -71.49883 | 25492 ft | 411 kts | 153° |
| 2026-05-09 21:38 | -41.97633 | -71.47336 | 24938 ft | 419 kts | 142° |
| 2026-05-09 21:39 | -41.99408 | -71.44179 | 24388 ft | 429 kts | 130° |
| 2026-05-09 21:39 | -42.00683 | -71.40508 | 23838 ft | 439 kts | 118° |
| 2026-05-09 21:39 | -42.01359 | -71.36456 | 23200 ft | 449 kts | 104° |
| 2026-05-09 21:39 | -42.01362 | -71.32237 | 22569 ft | 456 kts | 90° |
| 2026-05-09 21:40 | -42.00662 | -71.28064 | 21927 ft | 459 kts | 76° |
| 2026-05-09 21:40 | -41.99285 | -71.24197 | 21315 ft | 461 kts | 62° |
| 2026-05-09 21:40 | -41.97293 | -71.20836 | 20693 ft | 459 kts | 47° |
| 2026-05-09 21:40 | -41.94818 | -71.18183 | 20036 ft | 454 kts | 32° |
| 2026-05-09 21:41 | -41.92002 | -71.16352 | 19398 ft | 446 kts | 18° |
| 2026-05-09 21:41 | -41.89027 | -71.15406 | 18781 ft | 435 kts | 5° |
| 2026-05-09 21:41 | -41.86047 | -71.15305 | 18117 ft | 423 kts | 354° |
| 2026-05-09 21:41 | -41.83123 | -71.15492 | 17468 ft | 418 kts | 354° |
| 2026-05-09 21:42 | -41.80228 | -71.15665 | 16826 ft | 414 kts | 354° |
| 2026-05-09 21:42 | -41.77361 | -71.15821 | 16182 ft | 411 kts | 354° |
| 2026-05-09 21:42 | -41.74509 | -71.15962 | 15549 ft | 407 kts | 356° |
| 2026-05-09 21:42 | -41.71711 | -71.15426 | 14778 ft | 409 kts | 16° |
| 2026-05-09 21:43 | -41.69185 | -71.13843 | 14154 ft | 402 kts | 28° |
| 2026-05-09 21:43 | -41.66764 | -71.12031 | 13539 ft | 396 kts | 30° |
| 2026-05-09 21:43 | -41.64379 | -71.10229 | 12956 ft | 392 kts | 30° |
| 2026-05-09 21:43 | -41.61987 | -71.08479 | 12363 ft | 389 kts | 29° |
| 2026-05-09 21:44 | -41.59616 | -71.06766 | 11783 ft | 385 kts | 30° |
| 2026-05-09 21:44 | -41.57318 | -71.05080 | 11201 ft | 368 kts | 30° |
| 2026-05-09 21:44 | -41.55125 | -71.03458 | 10629 ft | 352 kts | 30° |
| 2026-05-09 21:44 | -41.53016 | -71.01911 | 10024 ft | 340 kts | 30° |
| 2026-05-09 21:45 | -41.50970 | -71.00418 | 9414 ft | 329 kts | 30° |
| 2026-05-09 21:45 | -41.48991 | -70.98970 | 8817 ft | 320 kts | 29° |
| 2026-05-09 21:45 | -41.47067 | -70.97561 | 8258 ft | 311 kts | 29° |
| 2026-05-09 21:45 | -41.45189 | -70.96190 | 7713 ft | 304 kts | 29° |
| 2026-05-09 21:46 | -41.43375 | -70.94867 | 7466 ft | 286 kts | 29° |
| 2026-05-09 21:46 | -41.41701 | -70.93646 | 7459 ft | 265 kts | 29° |
| 2026-05-09 21:46 | -41.40126 | -70.92495 | 7454 ft | 260 kts | 29° |
| 2026-05-09 21:46 | -41.38534 | -70.91334 | 7459 ft | 262 kts | 29° |
| 2026-05-09 21:47 | -41.36930 | -70.90166 | 7466 ft | 264 kts | 29° |
| 2026-05-09 21:47 | -41.35314 | -70.88989 | 7467 ft | 265 kts | 29° |
| 2026-05-09 21:47 | -41.33692 | -70.87823 | 7464 ft | 264 kts | 27° |
| 2026-05-09 21:47 | -41.31929 | -70.87270 | 7394 ft | 261 kts | 356° |
| 2026-05-09 21:48 | -41.30128 | -70.87601 | 7367 ft | 264 kts | 348° |
| 2026-05-09 21:48 | -41.28357 | -70.87992 | 7159 ft | 253 kts | 348° |
| 2026-05-09 21:48 | -41.26646 | -70.88351 | 6935 ft | 245 kts | 349° |
| 2026-05-09 21:48 | -41.25048 | -70.88949 | 6635 ft | 235 kts | 328° |
| 2026-05-09 21:49 | -41.23938 | -70.90400 | 6409 ft | 216 kts | 299° |
| 2026-05-09 21:49 | -41.23321 | -70.92109 | 6265 ft | 197 kts | 290° |
| 2026-05-09 21:49 | -41.22761 | -70.93736 | 6185 ft | 192 kts | 291° |
| 2026-05-09 21:49 | -41.22197 | -70.95359 | 5963 ft | 196 kts | 292° |
| 2026-05-09 21:50 | -41.21626 | -70.97006 | 5695 ft | 197 kts | 292° |
| 2026-05-09 21:50 | -41.21059 | -70.98647 | 5426 ft | 190 kts | 293° |
| 2026-05-09 21:50 | -41.20061 | -71.01527 | 4960 ft | 158 kts | 293° |
| 2026-05-09 21:51 | -41.19614 | -71.02817 | 4741 ft | 150 kts | 293° |
| 2026-05-09 21:51 | -41.19184 | -71.04060 | 4536 ft | 146 kts | 294° |
| 2026-05-09 21:51 | -41.18761 | -71.05279 | 4309 ft | 144 kts | 294° |
| 2026-05-09 21:51 | -41.18346 | -71.06476 | 4104 ft | 142 kts | 294° |
| 2026-05-09 21:52 | -41.17938 | -71.07650 | 3894 ft | 138 kts | 295° |
| 2026-05-09 21:52 | -41.17547 | -71.08774 | 3690 ft | 133 kts | 295° |
| 2026-05-09 21:52 | -41.17160 | -71.09876 | 3495 ft | 131 kts | 295° |
| 2026-05-09 21:52 | -41.16790 | -71.10963 | 3321 ft | 128 kts | 295° |
| 2026-05-09 21:53 | -41.16430 | -71.12025 | 3158 ft | 125 kts | 295° |
| 2026-05-09 21:53 | -41.16061 | -71.13058 | 2973 ft | 123 kts | 296° |
| 2026-05-09 21:53 | -41.15701 | -71.14078 | 2822 ft | 120 kts | 295° |
| 2026-05-09 21:54 | -41.15072 | -71.15886 | 2748 ft | 72 kts | 295° |
| 2026-05-09 21:54 | -41.14933 | -71.16286 | 2752 ft | 25 kts | 295° |
| 2026-05-09 21:54 | -41.14877 | -71.16329 | 2751 ft | 8 kts | 13° |
| 2026-05-09 21:54 | -41.14814 | -71.16292 | 2748 ft | 11 kts | 34° |
| 2026-05-09 21:55 | -41.14801 | -71.16200 | 2746 ft | 11 kts | 110° |
| 2026-05-09 21:55 | -41.14830 | -71.16112 | 2746 ft | 10 kts | 115° |
| 2026-05-09 21:55 | -41.14864 | -71.16014 | 2746 ft | 13 kts | 115° |
| 2026-05-09 21:55 | -41.14902 | -71.15908 | 2746 ft | 12 kts | 115° |
| 2026-05-09 21:56 | -41.14937 | -71.15809 | 2746 ft | 12 kts | 115° |
| 2026-05-09 21:56 | -41.14970 | -71.15712 | 2746 ft | 11 kts | 108° |
| 2026-05-09 21:56 | -41.14940 | -71.15636 | 2746 ft | 10 kts | 29° |
| 2026-05-09 21:56 | -41.14876 | -71.15618 | 2746 ft | 9 kts | 358° |
| 2026-05-09 21:57 | -41.14822 | -71.15645 | 2746 ft | 6 kts | 304° |
| 2026-05-09 21:57 | -41.14805 | -71.15696 | 2746 ft | 6 kts | 281° |
| 2026-05-09 21:57 | -41.14817 | -71.15734 | 2746 ft | 4 kts | 208° |
| 2026-05-09 21:57 | -41.14819 | -71.15735 | 2746 ft | 0 kts | 205° |